Terminal Aerodrome Forecast
Issued by NWS Upton, NY

Home | Current Version | Previous Version | Text Only | Print | Product List | Glossary On
Versions: 1 2 3 4 5 6 7 8 9 10 11 12 13 14 15 16 17 18 19 20 21 22 23 24 25 26 27 28 29 30 31 32 33 34 35 36 37
569
FTUS41 KOKX 232326
TAFBDR
TAF
KBDR 232326Z 2400/2424 05029G43KT 2SM +RAPL OVC015
     FM240500 05031G43KT 2SM +RA OVC009
     FM240800 05029G41KT 3SM RA OVC009
     FM241100 05023G37KT 5SM -RA OVC007
     FM241200 05021G35KT 5SM -RA OVC007
     FM241900 03014G23KT 5SM -RA OVC010
     FM242100 01013KT 5SM -RA OVC012
     FM242300 35013KT 5SM -RA OVC010=

USA.gov is the U.S. government's official web portal to all federal, state and local government web resources and services.